sensor_id;sensor_type;location;lat;lon;timestamp;P1;durP1;ratioP1;P2;durP2;ratioP2
59006;SDS011;44792;52.760;6.726;2023-04-12T00:02:11;5.97;;;2.63;;
59006;SDS011;44792;52.760;6.726;2023-04-12T00:04:36;8.48;;;3.00;;
59006;SDS011;44792;52.760;6.726;2023-04-12T00:07:03;9.63;;;2.92;;
59006;SDS011;44792;52.760;6.726;2023-04-12T00:09:30;10.82;;;3.20;;
59006;SDS011;44792;52.760;6.726;2023-04-12T00:11:57;6.32;;;2.40;;
59006;SDS011;44792;52.760;6.726;2023-04-12T00:14:23;4.95;;;2.40;;
59006;SDS011;44792;52.760;6.726;2023-04-12T00:16:50;7.57;;;2.17;;
59006;SDS011;44792;52.760;6.726;2023-04-12T00:19:16;13.02;;;3.00;;
59006;SDS011;44792;52.760;6.726;2023-04-12T00:21:42;7.10;;;3.17;;
59006;SDS011;44792;52.760;6.726;2023-04-12T00:24:08;9.00;;;3.13;;
59006;SDS011;44792;52.760;6.726;2023-04-12T00:26:34;8.52;;;3.28;;
59006;SDS011;44792;52.760;6.726;2023-04-12T00:29:00;7.15;;;2.85;;
59006;SDS011;44792;52.760;6.726;2023-04-12T00:31:26;12.15;;;3.20;;
59006;SDS011;44792;52.760;6.726;2023-04-12T00:33:52;7.70;;;2.58;;
59006;SDS011;44792;52.760;6.726;2023-04-12T00:36:17;9.35;;;2.58;;
59006;SDS011;44792;52.760;6.726;2023-04-12T00:38:43;2.97;;;2.42;;
59006;SDS011;44792;52.760;6.726;2023-04-12T00:41:16;6.18;;;2.47;;
59006;SDS011;44792;52.760;6.726;2023-04-12T00:43:41;4.57;;;2.45;;
59006;SDS011;44792;52.760;6.726;2023-04-12T00:46:07;10.18;;;2.70;;
59006;SDS011;44792;52.760;6.726;2023-04-12T00:48:33;9.02;;;2.88;;
59006;SDS011;44792;52.760;6.726;2023-04-12T00:51:00;11.45;;;2.80;;
59006;SDS011;44792;52.760;6.726;2023-04-12T00:53:28;5.22;;;2.63;;
59006;SDS011;44792;52.760;6.726;2023-04-12T00:55:53;11.93;;;2.70;;
59006;SDS011;44792;52.760;6.726;2023-04-12T00:58:20;9.43;;;2.42;;
59006;SDS011;44792;52.760;6.726;2023-04-12T01:00:48;9.70;;;3.05;;
59006;SDS011;44792;52.760;6.726;2023-04-12T01:03:21;8.88;;;3.30;;
59006;SDS011;44792;52.760;6.726;2023-04-12T01:06:11;8.20;;;2.70;;
59006;SDS011;44792;52.760;6.726;2023-04-12T01:09:26;8.25;;;3.35;;
59006;SDS011;44792;52.760;6.726;2023-04-12T01:11:49;9.50;;;3.08;;
59006;SDS011;44792;52.760;6.726;2023-04-12T01:17:13;6.93;;;2.53;;
59006;SDS011;44792;52.760;6.726;2023-04-12T01:19:59;11.68;;;3.00;;
59006;SDS011;44792;52.760;6.726;2023-04-12T01:22:44;9.35;;;3.00;;
59006;SDS011;44792;52.760;6.726;2023-04-12T01:28:12;12.35;;;2.58;;
59006;SDS011;44792;52.760;6.726;2023-04-12T01:30:41;6.97;;;2.17;;
59006;SDS011;44792;52.760;6.726;2023-04-12T01:33:10;9.23;;;2.47;;
59006;SDS011;44792;52.760;6.726;2023-04-12T01:35:36;9.40;;;2.75;;
59006;SDS011;44792;52.760;6.726;2023-04-12T01:38:03;8.75;;;2.60;;
59006;SDS011;44792;52.760;6.726;2023-04-12T01:40:30;4.90;;;2.65;;
59006;SDS011;44792;52.760;6.726;2023-04-12T01:43:10;12.85;;;2.88;;
59006;SDS011;44792;52.760;6.726;2023-04-12T01:45:37;5.03;;;2.38;;
59006;SDS011;44792;52.760;6.726;2023-04-12T01:48:04;7.90;;;3.15;;
59006;SDS011;44792;52.760;6.726;2023-04-12T01:53:17;11.40;;;2.90;;
59006;SDS011;44792;52.760;6.726;2023-04-12T01:55:58;6.78;;;2.75;;
59006;SDS011;44792;52.760;6.726;2023-04-12T01:58:28;9.10;;;3.92;;
59006;SDS011;44792;52.760;6.726;2023-04-12T02:00:55;14.45;;;3.25;;
59006;SDS011;44792;52.760;6.726;2023-04-12T02:03:22;9.02;;;2.25;;
59006;SDS011;44792;52.760;6.726;2023-04-12T02:05:49;5.10;;;2.22;;
59006;SDS011;44792;52.760;6.726;2023-04-12T02:08:16;6.28;;;2.47;;
59006;SDS011;44792;52.760;6.726;2023-04-12T02:10:42;4.90;;;2.00;;
59006;SDS011;44792;52.760;6.726;2023-04-12T02:13:08;8.48;;;2.45;;
59006;SDS011;44792;52.760;6.726;2023-04-12T02:15:33;8.68;;;1.90;;
59006;SDS011;44792;52.760;6.726;2023-04-12T02:18:01;5.97;;;2.13;;
59006;SDS011;44792;52.760;6.726;2023-04-12T02:20:27;6.78;;;2.00;;
59006;SDS011;44792;52.760;6.726;2023-04-12T02:22:53;5.50;;;2.35;;
59006;SDS011;44792;52.760;6.726;2023-04-12T02:25:18;5.80;;;2.50;;
59006;SDS011;44792;52.760;6.726;2023-04-12T02:27:44;6.60;;;2.42;;
59006;SDS011;44792;52.760;6.726;2023-04-12T02:30:11;4.80;;;2.05;;
59006;SDS011;44792;52.760;6.726;2023-04-12T02:32:37;5.50;;;2.10;;
59006;SDS011;44792;52.760;6.726;2023-04-12T02:35:13;4.43;;;2.40;;
59006;SDS011;44792;52.760;6.726;2023-04-12T02:37:46;6.45;;;2.08;;
59006;SDS011;44792;52.760;6.726;2023-04-12T02:40:12;5.00;;;2.28;;
59006;SDS011;44792;52.760;6.726;2023-04-12T02:42:42;5.78;;;2.42;;
59006;SDS011;44792;52.760;6.726;2023-04-12T02:45:08;5.90;;;2.05;;
59006;SDS011;44792;52.760;6.726;2023-04-12T02:47:35;5.78;;;1.88;;
59006;SDS011;44792;52.760;6.726;2023-04-12T02:50:02;3.83;;;2.28;;
59006;SDS011;44792;52.760;6.726;2023-04-12T02:52:28;5.88;;;2.38;;
59006;SDS011;44792;52.760;6.726;2023-04-12T02:54:56;6.72;;;2.15;;
59006;SDS011;44792;52.760;6.726;2023-04-12T02:57:22;8.30;;;2.25;;
59006;SDS011;44792;52.760;6.726;2023-04-12T02:59:52;8.38;;;2.78;;
59006;SDS011;44792;52.760;6.726;2023-04-12T03:02:18;5.53;;;1.85;;
59006;SDS011;44792;52.760;6.726;2023-04-12T03:04:44;10.75;;;3.42;;
59006;SDS011;44792;52.760;6.726;2023-04-12T03:07:15;7.25;;;1.85;;
59006;SDS011;44792;52.760;6.726;2023-04-12T03:09:41;5.10;;;1.92;;
59006;SDS011;44792;52.760;6.726;2023-04-12T03:12:08;6.32;;;2.88;;
59006;SDS011;44792;52.760;6.726;2023-04-12T03:14:34;2.60;;;2.08;;
59006;SDS011;44792;52.760;6.726;2023-04-12T03:17:00;3.05;;;1.98;;
59006;SDS011;44792;52.760;6.726;2023-04-12T03:19:25;5.65;;;1.88;;
59006;SDS011;44792;52.760;6.726;2023-04-12T03:21:53;4.53;;;2.00;;
59006;SDS011;44792;52.760;6.726;2023-04-12T03:24:18;5.53;;;2.10;;
59006;SDS011;44792;52.760;6.726;2023-04-12T03:26:44;9.60;;;3.22;;
59006;SDS011;44792;52.760;6.726;2023-04-12T03:29:10;5.97;;;2.30;;
59006;SDS011;44792;52.760;6.726;2023-04-12T03:31:36;7.43;;;2.38;;
59006;SDS011;44792;52.760;6.726;2023-04-12T03:34:01;7.55;;;2.22;;
59006;SDS011;44792;52.760;6.726;2023-04-12T03:36:28;4.68;;;2.10;;
59006;SDS011;44792;52.760;6.726;2023-04-12T03:38:54;5.15;;;2.45;;
59006;SDS011;44792;52.760;6.726;2023-04-12T03:41:23;9.77;;;2.45;;
59006;SDS011;44792;52.760;6.726;2023-04-12T03:43:49;5.07;;;1.70;;
59006;SDS011;44792;52.760;6.726;2023-04-12T03:46:15;6.20;;;2.45;;
59006;SDS011;44792;52.760;6.726;2023-04-12T03:48:40;5.63;;;2.20;;
59006;SDS011;44792;52.760;6.726;2023-04-12T03:51:07;3.88;;;2.88;;
59006;SDS011;44792;52.760;6.726;2023-04-12T03:53:36;4.25;;;2.10;;
59006;SDS011;44792;52.760;6.726;2023-04-12T03:56:02;3.58;;;2.20;;
59006;SDS011;44792;52.760;6.726;2023-04-12T03:58:28;3.50;;;2.22;;
59006;SDS011;44792;52.760;6.726;2023-04-12T04:00:54;9.95;;;2.47;;
59006;SDS011;44792;52.760;6.726;2023-04-12T04:03:19;6.10;;;2.45;;
59006;SDS011;44792;52.760;6.726;2023-04-12T04:05:50;4.90;;;2.15;;
59006;SDS011;44792;52.760;6.726;2023-04-12T04:08:17;8.02;;;3.65;;
59006;SDS011;44792;52.760;6.726;2023-04-12T04:10:43;5.65;;;2.33;;
59006;SDS011;44792;52.760;6.726;2023-04-12T04:13:08;4.97;;;2.25;;
59006;SDS011;44792;52.760;6.726;2023-04-12T04:15:35;3.55;;;2.67;;
59006;SDS011;44792;52.760;6.726;2023-04-12T04:18:01;6.60;;;2.50;;
59006;SDS011;44792;52.760;6.726;2023-04-12T04:20:26;5.07;;;2.70;;
59006;SDS011;44792;52.760;6.726;2023-04-12T04:22:52;7.95;;;2.25;;
59006;SDS011;44792;52.760;6.726;2023-04-12T04:25:18;7.68;;;2.17;;
59006;SDS011;44792;52.760;6.726;2023-04-12T04:27:43;5.43;;;2.63;;
59006;SDS011;44792;52.760;6.726;2023-04-12T04:30:13;5.55;;;2.30;;
59006;SDS011;44792;52.760;6.726;2023-04-12T04:32:42;7.45;;;2.50;;
59006;SDS011;44792;52.760;6.726;2023-04-12T04:35:08;11.32;;;3.25;;
59006;SDS011;44792;52.760;6.726;2023-04-12T04:37:34;7.10;;;2.50;;
59006;SDS011;44792;52.760;6.726;2023-04-12T04:40:00;5.70;;;2.42;;
59006;SDS011;44792;52.760;6.726;2023-04-12T04:42:38;3.70;;;2.33;;
59006;SDS011;44792;52.760;6.726;2023-04-12T04:45:04;7.10;;;2.95;;
59006;SDS011;44792;52.760;6.726;2023-04-12T04:47:39;7.43;;;2.35;;
59006;SDS011;44792;52.760;6.726;2023-04-12T04:50:05;10.45;;;3.03;;
59006;SDS011;44792;52.760;6.726;2023-04-12T04:52:31;7.57;;;2.45;;
59006;SDS011;44792;52.760;6.726;2023-04-12T04:54:57;5.78;;;2.80;;
59006;SDS011;44792;52.760;6.726;2023-04-12T04:57:23;5.50;;;2.53;;
59006;SDS011;44792;52.760;6.726;2023-04-12T04:59:50;8.20;;;2.58;;
59006;SDS011;44792;52.760;6.726;2023-04-12T05:02:16;4.63;;;2.83;;
59006;SDS011;44792;52.760;6.726;2023-04-12T05:04:42;5.40;;;2.33;;
59006;SDS011;44792;52.760;6.726;2023-04-12T05:07:07;7.93;;;2.33;;
59006;SDS011;44792;52.760;6.726;2023-04-12T05:09:33;6.47;;;2.20;;
59006;SDS011;44792;52.760;6.726;2023-04-12T05:11:59;2.95;;;1.83;;
59006;SDS011;44792;52.760;6.726;2023-04-12T05:14:25;6.43;;;2.20;;
59006;SDS011;44792;52.760;6.726;2023-04-12T05:16:50;5.18;;;2.58;;
59006;SDS011;44792;52.760;6.726;2023-04-12T05:19:16;6.25;;;2.20;;
59006;SDS011;44792;52.760;6.726;2023-04-12T05:21:42;5.35;;;2.40;;
59006;SDS011;44792;52.760;6.726;2023-04-12T05:24:07;7.03;;;2.58;;
59006;SDS011;44792;52.760;6.726;2023-04-12T05:26:33;7.18;;;2.75;;
59006;SDS011;44792;52.760;6.726;2023-04-12T05:28:59;5.60;;;2.20;;
59006;SDS011;44792;52.760;6.726;2023-04-12T05:31:25;8.45;;;2.33;;
59006;SDS011;44792;52.760;6.726;2023-04-12T05:33:52;7.88;;;2.28;;
59006;SDS011;44792;52.760;6.726;2023-04-12T05:36:18;6.72;;;2.15;;
59006;SDS011;44792;52.760;6.726;2023-04-12T05:38:44;7.75;;;1.83;;
59006;SDS011;44792;52.760;6.726;2023-04-12T05:41:11;4.20;;;2.65;;
59006;SDS011;44792;52.760;6.726;2023-04-12T05:43:36;3.00;;;2.70;;
59006;SDS011;44792;52.760;6.726;2023-04-12T05:46:03;6.28;;;2.70;;
59006;SDS011;44792;52.760;6.726;2023-04-12T05:48:32;5.68;;;2.20;;
59006;SDS011;44792;52.760;6.726;2023-04-12T05:50:58;4.13;;;2.20;;
59006;SDS011;44792;52.760;6.726;2023-04-12T05:53:23;4.32;;;2.63;;
59006;SDS011;44792;52.760;6.726;2023-04-12T05:55:49;9.55;;;2.55;;
59006;SDS011;44792;52.760;6.726;2023-04-12T05:58:15;5.80;;;2.88;;
59006;SDS011;44792;52.760;6.726;2023-04-12T06:00:41;4.10;;;2.20;;
59006;SDS011;44792;52.760;6.726;2023-04-12T06:03:09;3.15;;;2.00;;
59006;SDS011;44792;52.760;6.726;2023-04-12T06:05:35;5.80;;;2.28;;
59006;SDS011;44792;52.760;6.726;2023-04-12T06:08:01;4.63;;;2.22;;
59006;SDS011;44792;52.760;6.726;2023-04-12T06:10:29;3.67;;;2.03;;
59006;SDS011;44792;52.760;6.726;2023-04-12T06:12:55;4.28;;;2.55;;
59006;SDS011;44792;52.760;6.726;2023-04-12T06:15:21;4.47;;;2.33;;
59006;SDS011;44792;52.760;6.726;2023-04-12T06:17:47;5.95;;;2.45;;
59006;SDS011;44792;52.760;6.726;2023-04-12T06:20:15;5.50;;;2.58;;
59006;SDS011;44792;52.760;6.726;2023-04-12T06:22:41;2.13;;;1.85;;
59006;SDS011;44792;52.760;6.726;2023-04-12T06:25:07;7.00;;;2.33;;
59006;SDS011;44792;52.760;6.726;2023-04-12T06:27:33;4.35;;;2.20;;
59006;SDS011;44792;52.760;6.726;2023-04-12T06:29:58;5.28;;;2.22;;
59006;SDS011;44792;52.760;6.726;2023-04-12T06:32:24;4.45;;;2.05;;
59006;SDS011;44792;52.760;6.726;2023-04-12T06:34:50;5.95;;;2.28;;
59006;SDS011;44792;52.760;6.726;2023-04-12T06:37:16;6.05;;;2.58;;
59006;SDS011;44792;52.760;6.726;2023-04-12T06:39:42;3.85;;;2.58;;
59006;SDS011;44792;52.760;6.726;2023-04-12T06:42:08;4.47;;;2.15;;
59006;SDS011;44792;52.760;6.726;2023-04-12T06:44:33;4.90;;;2.15;;
59006;SDS011;44792;52.760;6.726;2023-04-12T06:46:59;7.78;;;3.13;;
59006;SDS011;44792;52.760;6.726;2023-04-12T06:49:25;7.50;;;2.70;;
59006;SDS011;44792;52.760;6.726;2023-04-12T06:51:51;2.92;;;2.50;;
59006;SDS011;44792;52.760;6.726;2023-04-12T06:54:16;6.38;;;2.42;;
59006;SDS011;44792;52.760;6.726;2023-04-12T06:56:42;4.43;;;2.95;;
59006;SDS011;44792;52.760;6.726;2023-04-12T06:59:08;7.40;;;3.05;;
59006;SDS011;44792;52.760;6.726;2023-04-12T07:01:34;3.58;;;2.08;;
59006;SDS011;44792;52.760;6.726;2023-04-12T07:04:00;3.40;;;2.33;;
59006;SDS011;44792;52.760;6.726;2023-04-12T07:06:28;5.10;;;2.03;;
59006;SDS011;44792;52.760;6.726;2023-04-12T07:08:54;4.93;;;2.03;;
59006;SDS011;44792;52.760;6.726;2023-04-12T07:11:20;4.20;;;2.50;;
59006;SDS011;44792;52.760;6.726;2023-04-12T07:13:46;2.63;;;2.20;;
59006;SDS011;44792;52.760;6.726;2023-04-12T07:16:12;4.53;;;2.35;;
59006;SDS011;44792;52.760;6.726;2023-04-12T07:18:38;4.40;;;2.38;;
59006;SDS011;44792;52.760;6.726;2023-04-12T07:21:04;5.13;;;2.70;;
59006;SDS011;44792;52.760;6.726;2023-04-12T07:23:30;6.93;;;3.38;;
59006;SDS011;44792;52.760;6.726;2023-04-12T07:25:59;5.82;;;2.78;;
59006;SDS011;44792;52.760;6.726;2023-04-12T07:28:26;4.80;;;2.63;;
59006;SDS011;44792;52.760;6.726;2023-04-12T07:30:52;3.53;;;2.55;;
59006;SDS011;44792;52.760;6.726;2023-04-12T07:33:17;5.35;;;2.25;;
59006;SDS011;44792;52.760;6.726;2023-04-12T07:35:43;4.63;;;2.40;;
59006;SDS011;44792;52.760;6.726;2023-04-12T07:38:09;3.38;;;2.50;;
59006;SDS011;44792;52.760;6.726;2023-04-12T07:40:35;5.95;;;2.97;;
59006;SDS011;44792;52.760;6.726;2023-04-12T07:43:00;4.93;;;2.47;;
59006;SDS011;44792;52.760;6.726;2023-04-12T07:45:26;4.43;;;2.60;;
59006;SDS011;44792;52.760;6.726;2023-04-12T07:47:52;5.90;;;2.67;;
59006;SDS011;44792;52.760;6.726;2023-04-12T07:50:17;4.57;;;2.97;;
59006;SDS011;44792;52.760;6.726;2023-04-12T07:52:43;4.43;;;2.63;;
59006;SDS011;44792;52.760;6.726;2023-04-12T07:55:09;3.65;;;3.05;;
59006;SDS011;44792;52.760;6.726;2023-04-12T07:57:35;3.85;;;2.70;;
59006;SDS011;44792;52.760;6.726;2023-04-12T08:00:00;4.60;;;2.65;;
59006;SDS011;44792;52.760;6.726;2023-04-12T08:02:26;4.20;;;2.70;;
59006;SDS011;44792;52.760;6.726;2023-04-12T08:04:52;3.35;;;3.05;;
59006;SDS011;44792;52.760;6.726;2023-04-12T08:07:18;4.20;;;3.20;;
59006;SDS011;44792;52.760;6.726;2023-04-12T08:09:46;4.85;;;3.35;;
59006;SDS011;44792;52.760;6.726;2023-04-12T08:12:13;6.03;;;2.83;;
59006;SDS011;44792;52.760;6.726;2023-04-12T08:14:39;6.38;;;3.08;;
59006;SDS011;44792;52.760;6.726;2023-04-12T08:17:05;8.85;;;3.63;;
59006;SDS011;44792;52.760;6.726;2023-04-12T08:19:31;3.42;;;3.13;;
59006;SDS011;44792;52.760;6.726;2023-04-12T08:21:56;3.95;;;3.65;;
59006;SDS011;44792;52.760;6.726;2023-04-12T08:24:22;3.30;;;3.00;;
59006;SDS011;44792;52.760;6.726;2023-04-12T08:26:49;3.30;;;2.92;;
59006;SDS011;44792;52.760;6.726;2023-04-12T08:29:15;3.20;;;3.00;;
59006;SDS011;44792;52.760;6.726;2023-04-12T08:31:41;3.75;;;3.30;;
59006;SDS011;44792;52.760;6.726;2023-04-12T08:34:07;5.72;;;2.90;;
59006;SDS011;44792;52.760;6.726;2023-04-12T08:36:32;3.35;;;3.05;;
59006;SDS011;44792;52.760;6.726;2023-04-12T08:38:58;4.07;;;3.60;;
59006;SDS011;44792;52.760;6.726;2023-04-12T08:41:25;4.28;;;3.33;;
59006;SDS011;44792;52.760;6.726;2023-04-12T08:43:51;3.40;;;3.20;;
59006;SDS011;44792;52.760;6.726;2023-04-12T08:46:19;3.85;;;3.55;;
59006;SDS011;44792;52.760;6.726;2023-04-12T08:48:46;4.78;;;3.65;;
59006;SDS011;44792;52.760;6.726;2023-04-12T08:51:15;4.43;;;3.72;;
59006;SDS011;44792;52.760;6.726;2023-04-12T08:53:42;4.40;;;3.85;;
59006;SDS011;44792;52.760;6.726;2023-04-12T08:56:11;5.00;;;4.50;;
59006;SDS011;44792;52.760;6.726;2023-04-12T08:58:38;8.40;;;4.45;;
59006;SDS011;44792;52.760;6.726;2023-04-12T09:01:14;4.30;;;3.85;;
59006;SDS011;44792;52.760;6.726;2023-04-12T09:03:44;5.65;;;4.72;;
59006;SDS011;44792;52.760;6.726;2023-04-12T09:06:11;4.82;;;4.32;;
59006;SDS011;44792;52.760;6.726;2023-04-12T09:08:49;5.78;;;4.28;;
59006;SDS011;44792;52.760;6.726;2023-04-12T09:11:23;4.57;;;4.18;;
59006;SDS011;44792;52.760;6.726;2023-04-12T09:13:50;5.30;;;4.50;;
59006;SDS011;44792;52.760;6.726;2023-04-12T09:16:32;5.03;;;4.53;;
59006;SDS011;44792;52.760;6.726;2023-04-12T09:18:58;4.65;;;4.13;;
59006;SDS011;44792;52.760;6.726;2023-04-12T09:21:26;5.30;;;4.60;;
59006;SDS011;44792;52.760;6.726;2023-04-12T09:24:08;6.68;;;4.43;;
59006;SDS011;44792;52.760;6.726;2023-04-12T09:26:37;6.43;;;5.53;;
59006;SDS011;44792;52.760;6.726;2023-04-12T09:29:04;5.00;;;4.47;;
59006;SDS011;44792;52.760;6.726;2023-04-12T09:31:30;5.93;;;4.97;;
59006;SDS011;44792;52.760;6.726;2023-04-12T09:34:04;6.43;;;4.80;;
59006;SDS011;44792;52.760;6.726;2023-04-12T09:36:36;5.72;;;5.20;;
59006;SDS011;44792;52.760;6.726;2023-04-12T09:39:05;7.93;;;6.10;;
59006;SDS011;44792;52.760;6.726;2023-04-12T09:41:31;8.45;;;5.78;;
59006;SDS011;44792;52.760;6.726;2023-04-12T09:43:58;7.68;;;6.13;;
59006;SDS011;44792;52.760;6.726;2023-04-12T09:46:24;7.38;;;6.38;;
59006;SDS011;44792;52.760;6.726;2023-04-12T09:48:52;7.43;;;6.03;;
59006;SDS011;44792;52.760;6.726;2023-04-12T09:51:25;7.75;;;6.90;;
59006;SDS011;44792;52.760;6.726;2023-04-12T09:53:57;12.70;;;7.53;;
59006;SDS011;44792;52.760;6.726;2023-04-12T09:56:29;10.80;;;7.03;;
59006;SDS011;44792;52.760;6.726;2023-04-12T09:58:59;7.88;;;7.00;;
59006;SDS011;44792;52.760;6.726;2023-04-12T10:01:28;8.77;;;6.93;;
59006;SDS011;44792;52.760;6.726;2023-04-12T10:03:57;6.75;;;6.05;;
59006;SDS011;44792;52.760;6.726;2023-04-12T10:06:23;10.20;;;6.55;;
59006;SDS011;44792;52.760;6.726;2023-04-12T10:08:50;7.97;;;6.82;;
59006;SDS011;44792;52.760;6.726;2023-04-12T10:11:17;10.02;;;6.68;;
59006;SDS011;44792;52.760;6.726;2023-04-12T10:13:43;9.35;;;6.95;;
59006;SDS011;44792;52.760;6.726;2023-04-12T10:16:09;8.93;;;6.53;;
59006;SDS011;44792;52.760;6.726;2023-04-12T10:18:37;8.02;;;6.30;;
59006;SDS011;44792;52.760;6.726;2023-04-12T10:21:04;7.55;;;6.75;;
59006;SDS011;44792;52.760;6.726;2023-04-12T10:23:30;7.03;;;5.40;;
59006;SDS011;44792;52.760;6.726;2023-04-12T10:25:57;8.10;;;5.65;;
59006;SDS011;44792;52.760;6.726;2023-04-12T10:28:24;7.30;;;6.05;;
59006;SDS011;44792;52.760;6.726;2023-04-12T10:30:49;7.70;;;5.00;;
59006;SDS011;44792;52.760;6.726;2023-04-12T10:33:17;8.60;;;5.85;;
59006;SDS011;44792;52.760;6.726;2023-04-12T10:35:51;8.07;;;5.00;;
59006;SDS011;44792;52.760;6.726;2023-04-12T10:38:20;10.68;;;4.38;;
59006;SDS011;44792;52.760;6.726;2023-04-12T10:43:39;5.22;;;3.90;;
59006;SDS011;44792;52.760;6.726;2023-04-12T10:49:12;8.40;;;3.55;;
59006;SDS011;44792;52.760;6.726;2023-04-12T10:51:39;6.88;;;3.55;;
59006;SDS011;44792;52.760;6.726;2023-04-12T10:56:54;10.18;;;3.80;;
59006;SDS011;44792;52.760;6.726;2023-04-12T10:59:21;8.68;;;4.57;;
59006;SDS011;44792;52.760;6.726;2023-04-12T11:04:31;13.70;;;4.03;;
59006;SDS011;44792;52.760;6.726;2023-04-12T11:07:07;7.90;;;3.20;;
59006;SDS011;44792;52.760;6.726;2023-04-12T11:14:33;10.80;;;3.60;;
59006;SDS011;44792;52.760;6.726;2023-04-12T11:19:34;6.65;;;3.30;;
59006;SDS011;44792;52.760;6.726;2023-04-12T11:22:02;8.88;;;2.90;;
59006;SDS011;44792;52.760;6.726;2023-04-12T11:24:29;5.63;;;2.70;;
59006;SDS011;44792;52.760;6.726;2023-04-12T11:26:55;10.57;;;4.65;;
59006;SDS011;44792;52.760;6.726;2023-04-12T11:29:25;4.57;;;3.17;;
59006;SDS011;44792;52.760;6.726;2023-04-12T11:31:51;9.70;;;3.00;;
59006;SDS011;44792;52.760;6.726;2023-04-12T11:34:17;6.63;;;2.78;;
59006;SDS011;44792;52.760;6.726;2023-04-12T11:36:51;8.27;;;2.97;;
59006;SDS011;44792;52.760;6.726;2023-04-12T11:39:18;10.75;;;2.90;;
59006;SDS011;44792;52.760;6.726;2023-04-12T11:41:48;7.78;;;3.08;;
59006;SDS011;44792;52.760;6.726;2023-04-12T11:44:14;12.90;;;3.10;;
59006;SDS011;44792;52.760;6.726;2023-04-12T11:46:46;8.57;;;3.03;;
59006;SDS011;44792;52.760;6.726;2023-04-12T11:49:15;12.68;;;2.38;;
59006;SDS011;44792;52.760;6.726;2023-04-12T11:51:42;11.75;;;2.78;;
59006;SDS011;44792;52.760;6.726;2023-04-12T11:54:09;11.30;;;3.67;;
59006;SDS011;44792;52.760;6.726;2023-04-12T11:56:35;5.82;;;2.67;;
59006;SDS011;44792;52.760;6.726;2023-04-12T11:59:01;14.40;;;3.53;;
59006;SDS011;44792;52.760;6.726;2023-04-12T12:01:27;8.02;;;4.15;;
59006;SDS011;44792;52.760;6.726;2023-04-12T12:03:54;11.05;;;3.05;;
59006;SDS011;44792;52.760;6.726;2023-04-12T12:06:21;8.80;;;3.75;;
59006;SDS011;44792;52.760;6.726;2023-04-12T12:08:50;9.93;;;3.15;;
59006;SDS011;44792;52.760;6.726;2023-04-12T12:11:20;4.93;;;2.25;;
59006;SDS011;44792;52.760;6.726;2023-04-12T12:13:51;10.18;;;2.63;;
59006;SDS011;44792;52.760;6.726;2023-04-12T12:16:22;6.82;;;2.55;;
59006;SDS011;44792;52.760;6.726;2023-04-12T12:18:52;7.25;;;2.17;;
59006;SDS011;44792;52.760;6.726;2023-04-12T12:21:18;6.18;;;2.08;;
59006;SDS011;44792;52.760;6.726;2023-04-12T12:23:45;8.55;;;2.20;;
59006;SDS011;44792;52.760;6.726;2023-04-12T12:26:18;9.52;;;2.20;;
59006;SDS011;44792;52.760;6.726;2023-04-12T12:28:55;7.50;;;2.72;;
59006;SDS011;44792;52.760;6.726;2023-04-12T12:31:24;7.25;;;2.42;;
59006;SDS011;44792;52.760;6.726;2023-04-12T12:33:55;9.05;;;3.33;;
59006;SDS011;44792;52.760;6.726;2023-04-12T12:36:29;9.38;;;2.45;;
59006;SDS011;44792;52.760;6.726;2023-04-12T12:39:01;10.95;;;2.28;;
59006;SDS011;44792;52.760;6.726;2023-04-12T12:41:30;8.75;;;2.28;;
59006;SDS011;44792;52.760;6.726;2023-04-12T12:43:57;8.02;;;3.10;;
59006;SDS011;44792;52.760;6.726;2023-04-12T12:46:24;7.38;;;2.90;;
59006;SDS011;44792;52.760;6.726;2023-04-12T12:48:50;7.70;;;2.85;;
59006;SDS011;44792;52.760;6.726;2023-04-12T12:51:16;11.35;;;4.15;;
59006;SDS011;44792;52.760;6.726;2023-04-12T12:53:43;7.30;;;1.90;;
59006;SDS011;44792;52.760;6.726;2023-04-12T12:56:10;5.95;;;2.28;;
59006;SDS011;44792;52.760;6.726;2023-04-12T12:58:36;9.43;;;2.67;;
59006;SDS011;44792;52.760;6.726;2023-04-12T13:01:02;9.60;;;4.03;;
59006;SDS011;44792;52.760;6.726;2023-04-12T13:03:29;5.95;;;3.10;;
59006;SDS011;44792;52.760;6.726;2023-04-12T13:05:55;9.35;;;3.95;;
59006;SDS011;44792;52.760;6.726;2023-04-12T13:08:21;11.15;;;3.90;;
59006;SDS011;44792;52.760;6.726;2023-04-12T13:10:47;17.45;;;4.68;;
59006;SDS011;44792;52.760;6.726;2023-04-12T13:13:13;17.98;;;4.13;;
59006;SDS011;44792;52.760;6.726;2023-04-12T13:15:39;9.40;;;3.88;;
59006;SDS011;44792;52.760;6.726;2023-04-12T13:18:05;9.85;;;3.60;;
59006;SDS011;44792;52.760;6.726;2023-04-12T13:20:31;14.63;;;4.75;;
59006;SDS011;44792;52.760;6.726;2023-04-12T13:22:57;12.27;;;2.67;;
59006;SDS011;44792;52.760;6.726;2023-04-12T13:25:23;8.23;;;3.03;;
59006;SDS011;44792;52.760;6.726;2023-04-12T13:27:49;16.85;;;4.60;;
59006;SDS011;44792;52.760;6.726;2023-04-12T13:30:18;14.85;;;4.78;;
59006;SDS011;44792;52.760;6.726;2023-04-12T13:32:44;7.13;;;2.45;;
59006;SDS011;44792;52.760;6.726;2023-04-12T13:35:10;11.32;;;2.40;;
59006;SDS011;44792;52.760;6.726;2023-04-12T13:37:36;10.65;;;3.03;;
59006;SDS011;44792;52.760;6.726;2023-04-12T13:40:02;16.08;;;4.30;;
59006;SDS011;44792;52.760;6.726;2023-04-12T13:42:28;14.90;;;4.07;;
59006;SDS011;44792;52.760;6.726;2023-04-12T13:44:54;17.00;;;5.70;;
59006;SDS011;44792;52.760;6.726;2023-04-12T13:47:21;14.10;;;4.15;;
59006;SDS011;44792;52.760;6.726;2023-04-12T13:49:47;14.07;;;4.32;;
59006;SDS011;44792;52.760;6.726;2023-04-12T13:52:13;14.48;;;4.40;;
59006;SDS011;44792;52.760;6.726;2023-04-12T13:54:39;15.15;;;3.58;;
59006;SDS011;44792;52.760;6.726;2023-04-12T13:57:07;17.40;;;5.22;;
59006;SDS011;44792;52.760;6.726;2023-04-12T13:59:33;10.85;;;3.60;;
59006;SDS011;44792;52.760;6.726;2023-04-12T14:01:59;11.82;;;3.20;;
59006;SDS011;44792;52.760;6.726;2023-04-12T14:04:26;8.02;;;2.40;;
59006;SDS011;44792;52.760;6.726;2023-04-12T14:06:52;9.65;;;1.90;;
59006;SDS011;44792;52.760;6.726;2023-04-12T14:09:25;9.43;;;2.10;;
59006;SDS011;44792;52.760;6.726;2023-04-12T14:11:52;5.28;;;2.38;;
59006;SDS011;44792;52.760;6.726;2023-04-12T14:14:20;4.68;;;1.85;;
59006;SDS011;44792;52.760;6.726;2023-04-12T14:16:47;8.35;;;1.70;;
59006;SDS011;44792;52.760;6.726;2023-04-12T14:19:14;8.25;;;1.95;;
59006;SDS011;44792;52.760;6.726;2023-04-12T14:21:40;8.88;;;2.10;;
59006;SDS011;44792;52.760;6.726;2023-04-12T14:24:06;3.67;;;1.58;;
59006;SDS011;44792;52.760;6.726;2023-04-12T14:26:32;5.70;;;2.08;;
59006;SDS011;44792;52.760;6.726;2023-04-12T14:28:58;8.93;;;1.98;;
59006;SDS011;44792;52.760;6.726;2023-04-12T14:31:23;3.75;;;2.03;;
59006;SDS011;44792;52.760;6.726;2023-04-12T14:33:49;8.10;;;1.83;;
59006;SDS011;44792;52.760;6.726;2023-04-12T14:36:16;4.95;;;1.63;;
59006;SDS011;44792;52.760;6.726;2023-04-12T14:38:41;8.50;;;2.38;;
59006;SDS011;44792;52.760;6.726;2023-04-12T14:41:08;20.50;;;9.82;;
59006;SDS011;44792;52.760;6.726;2023-04-12T14:43:34;7.78;;;3.55;;
59006;SDS011;44792;52.760;6.726;2023-04-12T14:46:00;10.30;;;3.10;;
59006;SDS011;44792;52.760;6.726;2023-04-12T14:48:25;12.13;;;3.05;;
59006;SDS011;44792;52.760;6.726;2023-04-12T14:50:51;5.60;;;2.85;;
59006;SDS011;44792;52.760;6.726;2023-04-12T14:53:18;6.15;;;2.40;;
59006;SDS011;44792;52.760;6.726;2023-04-12T14:55:45;5.10;;;1.70;;
59006;SDS011;44792;52.760;6.726;2023-04-12T14:58:11;5.40;;;1.92;;
59006;SDS011;44792;52.760;6.726;2023-04-12T15:00:37;5.38;;;1.77;;
59006;SDS011;44792;52.760;6.726;2023-04-12T15:03:03;5.53;;;1.80;;
59006;SDS011;44792;52.760;6.726;2023-04-12T15:05:31;3.95;;;2.63;;
59006;SDS011;44792;52.760;6.726;2023-04-12T15:07:57;8.13;;;3.28;;
59006;SDS011;44792;52.760;6.726;2023-04-12T15:10:23;5.63;;;1.67;;
59006;SDS011;44792;52.760;6.726;2023-04-12T15:12:49;8.02;;;2.38;;
59006;SDS011;44792;52.760;6.726;2023-04-12T15:15:15;6.93;;;3.17;;